createdAt,value
2022-08-31T00:03:08.334Z,2.65
2022-08-31T00:05:47.774Z,2.33
2022-08-31T00:08:25.793Z,1.90
2022-08-31T00:11:09.016Z,2.13
2022-08-31T00:13:47.946Z,2.30
2022-08-31T00:16:21.448Z,2.67
2022-08-31T00:19:01.280Z,2.15
2022-08-31T00:21:45.124Z,2.95
2022-08-31T00:24:17.787Z,2.70
2022-08-31T00:26:50.422Z,2.17
2022-08-31T00:29:26.994Z,2.20
2022-08-31T00:32:04.532Z,2.40
2022-08-31T00:34:46.347Z,3.53
2022-08-31T00:37:24.274Z,3.50
2022-08-31T00:39:59.905Z,3.63
2022-08-31T00:42:43.734Z,3.53
2022-08-31T00:45:24.549Z,2.83
2022-08-31T00:47:57.228Z,2.80
2022-08-31T00:50:27.435Z,2.72
2022-08-31T00:53:01.583Z,1.80
2022-08-31T00:55:43.378Z,2.53
2022-08-31T00:58:14.947Z,2.55
2022-08-31T01:00:52.682Z,2.20
2022-08-31T01:03:26.877Z,1.98
2022-08-31T01:06:09.056Z,2.97
2022-08-31T01:08:46.138Z,2.00
2022-08-31T01:11:20.958Z,2.47
2022-08-31T01:13:52.729Z,2.40
2022-08-31T01:16:36.540Z,2.65
2022-08-31T01:19:16.198Z,2.60
2022-08-31T01:21:55.130Z,3.22
2022-08-31T01:24:26.324Z,3.42
2022-08-31T01:27:03.451Z,2.75
2022-08-31T01:29:36.917Z,3.40
2022-08-31T01:32:08.230Z,3.70
2022-08-31T01:34:38.204Z,4.20
2022-08-31T01:37:09.925Z,3.85
2022-08-31T01:39:38.866Z,2.92
2022-08-31T01:42:06.857Z,2.80
2022-08-31T01:44:36.565Z,2.25
2022-08-31T01:47:08.109Z,2.03
2022-08-31T01:49:37.607Z,2.70
2022-08-31T01:52:09.971Z,2.33
2022-08-31T01:54:40.019Z,2.60
2022-08-31T01:57:10.987Z,3.22
2022-08-31T02:00:09.383Z,3.00
2022-08-31T02:02:45.768Z,2.33
2022-08-31T02:05:18.861Z,5.88
2022-08-31T02:07:49.971Z,1.88
2022-08-31T02:10:22.760Z,2.22
2022-08-31T02:12:53.222Z,2.45
2022-08-31T02:15:31.380Z,2.67
2022-08-31T02:18:02.872Z,2.42
2022-08-31T02:20:37.724Z,2.45
2022-08-31T02:23:05.650Z,2.40
2022-08-31T02:25:37.771Z,2.63
2022-08-31T02:28:08.589Z,2.65
2022-08-31T02:33:21.561Z,2.40
2022-08-31T02:35:53.574Z,2.38
2022-08-31T02:38:26.646Z,2.92
2022-08-31T02:40:55.105Z,2.67
2022-08-31T02:43:25.257Z,2.60
2022-08-31T02:45:56.042Z,3.15
2022-08-31T02:48:32.983Z,3.95
2022-08-31T02:51:11.558Z,3.47
2022-08-31T02:53:41.162Z,3.00
2022-08-31T02:56:14.588Z,3.42
2022-08-31T02:58:44.578Z,3.45
2022-08-31T03:01:14.764Z,5.13
2022-08-31T03:03:46.579Z,6.70
2022-08-31T03:06:27.721Z,5.13
2022-08-31T03:09:00.810Z,3.85
2022-08-31T03:11:30.815Z,3.20
2022-08-31T03:14:04.794Z,2.90
2022-08-31T03:16:33.819Z,2.13
2022-08-31T03:19:04.112Z,2.42
2022-08-31T03:21:32.091Z,2.63
2022-08-31T03:24:03.167Z,3.65
2022-08-31T03:26:31.578Z,3.22
2022-08-31T03:29:00.151Z,6.07
2022-08-31T03:31:48.377Z,11.27
2022-08-31T03:34:17.147Z,8.43
2022-08-31T03:36:45.381Z,7.22
2022-08-31T03:39:17.038Z,6.28
2022-08-31T03:41:49.094Z,5.30
2022-08-31T03:44:22.122Z,4.00
2022-08-31T03:46:56.464Z,3.17
2022-08-31T03:49:29.384Z,3.20
2022-08-31T03:52:14.526Z,3.00
2022-08-31T03:54:50.076Z,2.80
2022-08-31T03:57:30.246Z,2.33
2022-08-31T03:59:59.254Z,2.42
2022-08-31T04:03:04.566Z,2.30
2022-08-31T04:05:45.227Z,2.85
2022-08-31T04:08:25.510Z,3.08
2022-08-31T04:11:37.174Z,2.08
2022-08-31T04:14:31.884Z,2.17
2022-08-31T04:17:24.665Z,2.00
2022-08-31T04:20:04.887Z,1.67
2022-08-31T04:22:53.252Z,2.15
2022-08-31T04:25:51.467Z,1.83
2022-08-31T04:28:36.032Z,2.55
2022-08-31T04:31:21.596Z,2.47
2022-08-31T04:36:47.915Z,1.58
2022-08-31T04:39:32.833Z,1.85
2022-08-31T04:42:06.619Z,1.85
2022-08-31T04:44:39.127Z,1.35
2022-08-31T04:47:28.141Z,1.13
2022-08-31T04:50:10.948Z,2.90
2022-08-31T04:53:05.345Z,2.38
2022-08-31T04:56:17.934Z,1.80
2022-08-31T05:01:26.774Z,2.60
2022-08-31T05:04:10.590Z,1.48
2022-08-31T05:06:44.638Z,1.73
2022-08-31T05:09:22.026Z,2.13
2022-08-31T05:11:54.491Z,2.05
2022-08-31T05:14:30.199Z,1.73
2022-08-31T05:17:11.554Z,1.77
2022-08-31T05:20:05.322Z,1.63
2022-08-31T05:22:46.467Z,1.67
2022-08-31T05:25:19.234Z,1.50
2022-08-31T05:27:54.712Z,1.45
2022-08-31T05:30:46.833Z,1.60
2022-08-31T05:33:39.625Z,1.63
2022-08-31T05:36:14.239Z,2.08
2022-08-31T05:38:48.225Z,1.90
2022-08-31T05:44:05.842Z,1.85
2022-08-31T05:46:57.249Z,1.73
2022-08-31T05:49:45.129Z,1.70
2022-08-31T05:52:27.885Z,1.60
2022-08-31T05:55:06.747Z,1.63
2022-08-31T05:57:53.197Z,1.67
2022-08-31T06:00:38.498Z,1.25
2022-08-31T06:03:58.414Z,1.80
2022-08-31T06:06:35.988Z,2.15
2022-08-31T06:09:15.150Z,1.30
2022-08-31T06:11:54.425Z,2.30
2022-08-31T06:14:26.303Z,1.20
2022-08-31T06:17:11.027Z,1.15
2022-08-31T06:19:46.764Z,1.88
2022-08-31T06:22:32.083Z,1.75
2022-08-31T06:25:14.067Z,1.40
2022-08-31T06:27:53.460Z,1.77
2022-08-31T06:30:52.933Z,1.92
2022-08-31T06:33:30.059Z,1.70
2022-08-31T06:36:23.669Z,1.40
2022-08-31T06:39:37.358Z,1.50
2022-08-31T06:42:26.609Z,1.40
2022-08-31T06:45:18.625Z,1.10
2022-08-31T06:48:04.856Z,2.67
2022-08-31T06:50:43.499Z,1.45
2022-08-31T06:53:27.857Z,1.70
2022-08-31T06:56:22.664Z,1.42
2022-08-31T06:59:16.034Z,1.40
2022-08-31T07:02:17.667Z,1.00
2022-08-31T07:05:25.591Z,1.35
2022-08-31T07:08:00.331Z,1.02
2022-08-31T07:10:31.094Z,1.30
2022-08-31T07:13:14.034Z,0.98
2022-08-31T07:15:58.850Z,2.00
2022-08-31T07:18:38.337Z,1.08
2022-08-31T07:21:28.257Z,1.30
2022-08-31T07:24:15.889Z,1.20
2022-08-31T07:26:53.333Z,1.20
2022-08-31T07:29:42.330Z,1.08
2022-08-31T07:32:50.871Z,1.00
2022-08-31T07:35:32.302Z,0.90
2022-08-31T07:38:50.210Z,1.38
2022-08-31T07:41:53.293Z,0.90
2022-08-31T07:44:32.073Z,1.10
2022-08-31T07:47:15.276Z,1.00
2022-08-31T07:50:02.922Z,0.90
2022-08-31T07:53:03.684Z,1.40
2022-08-31T07:56:01.887Z,1.20
2022-08-31T07:58:50.343Z,1.00
2022-08-31T08:04:52.665Z,1.27
2022-08-31T08:07:45.378Z,1.70
2022-08-31T08:10:52.138Z,1.73
2022-08-31T08:13:51.191Z,1.40
2022-08-31T08:16:42.833Z,1.20
2022-08-31T08:19:36.596Z,1.30
2022-08-31T08:22:12.421Z,1.50
2022-08-31T08:25:09.785Z,1.13
2022-08-31T08:28:08.753Z,1.53
2022-08-31T08:31:02.069Z,1.10
2022-08-31T08:33:39.313Z,1.00
2022-08-31T08:36:21.014Z,1.50
2022-08-31T08:39:04.483Z,1.10
2022-08-31T08:41:45.657Z,1.35
2022-08-31T08:44:30.007Z,0.70
2022-08-31T08:47:12.841Z,1.30
2022-08-31T08:49:57.779Z,0.93
2022-08-31T08:52:40.718Z,1.10
2022-08-31T08:55:33.301Z,1.17
2022-08-31T08:58:18.317Z,0.90
2022-08-31T09:00:58.447Z,1.30
2022-08-31T09:03:47.131Z,0.90
2022-08-31T09:06:46.411Z,0.60
2022-08-31T09:09:31.597Z,0.98
2022-08-31T09:12:41.846Z,1.02
2022-08-31T09:15:40.712Z,1.70
2022-08-31T09:18:46.579Z,0.80
2022-08-31T09:21:31.193Z,0.70
2022-08-31T09:24:15.269Z,0.50
2022-08-31T09:27:24.725Z,5.22
2022-08-31T09:30:06.642Z,14.45
2022-08-31T09:32:41.484Z,1.60
2022-08-31T09:35:43.943Z,0.75
2022-08-31T09:39:20.635Z,1.20
2022-08-31T09:42:35.325Z,1.38
2022-08-31T09:45:20.070Z,0.80
2022-08-31T09:48:06.695Z,1.20
2022-08-31T09:50:49.629Z,0.82
2022-08-31T09:53:51.869Z,0.90
2022-08-31T09:56:37.297Z,0.77
2022-08-31T09:59:47.542Z,0.40
2022-08-31T10:02:47.710Z,1.50
2022-08-31T10:05:58.262Z,0.63
2022-08-31T10:08:59.009Z,0.60
2022-08-31T10:11:52.989Z,0.65
2022-08-31T10:14:50.219Z,0.80
2022-08-31T10:17:49.755Z,1.17
2022-08-31T10:20:45.325Z,0.70
2022-08-31T10:23:28.463Z,1.70
2022-08-31T10:26:10.660Z,0.88
2022-08-31T10:28:53.261Z,0.82
2022-08-31T10:31:54.984Z,0.70
2022-08-31T10:34:58.884Z,2.90
2022-08-31T10:38:41.001Z,0.95
2022-08-31T10:41:44.280Z,1.67
2022-08-31T10:44:58.327Z,0.88
2022-08-31T10:47:44.701Z,1.00
2022-08-31T10:50:46.237Z,1.15
2022-08-31T10:53:40.036Z,2.28
2022-08-31T10:56:38.015Z,2.25
2022-08-31T10:59:57.575Z,1.95
2022-08-31T11:03:36.647Z,3.42
2022-08-31T11:06:50.433Z,1.20
2022-08-31T11:09:57.271Z,2.03
2022-08-31T11:12:46.781Z,2.03
2022-08-31T11:15:55.599Z,1.08
2022-08-31T11:19:21.722Z,2.20
2022-08-31T11:22:43.024Z,1.50
2022-08-31T11:25:53.378Z,1.08
2022-08-31T11:28:42.521Z,1.45
2022-08-31T11:34:59.013Z,1.52
2022-08-31T11:38:07.018Z,0.82
2022-08-31T11:40:50.226Z,3.63
2022-08-31T11:43:55.098Z,2.30
2022-08-31T11:47:18.817Z,2.50
2022-08-31T11:50:11.849Z,2.70
2022-08-31T11:53:02.437Z,2.45
2022-08-31T11:56:13.879Z,2.65
2022-08-31T11:59:39.180Z,3.10
2022-08-31T12:02:44.640Z,3.08
2022-08-31T12:06:05.951Z,2.50
2022-08-31T12:09:14.940Z,3.53
2022-08-31T12:16:21.604Z,2.35
2022-08-31T12:20:01.057Z,3.10
2022-08-31T12:23:37.056Z,1.02
2022-08-31T12:26:40.640Z,1.30
2022-08-31T12:29:41.196Z,1.25
2022-08-31T12:32:42.540Z,0.70
2022-08-31T12:35:26.641Z,0.75
2022-08-31T12:38:14.420Z,1.20
2022-08-31T12:41:10.118Z,0.70
2022-08-31T12:43:56.328Z,3.78
2022-08-31T12:50:48.118Z,1.45
2022-08-31T12:53:46.479Z,2.55
2022-08-31T12:56:51.467Z,2.00
2022-08-31T13:04:06.573Z,1.92
2022-08-31T13:07:33.753Z,1.15
2022-08-31T13:10:18.439Z,1.60
2022-08-31T13:13:24.921Z,1.40
2022-08-31T13:16:20.513Z,1.48
2022-08-31T13:19:06.957Z,1.33
2022-08-31T13:21:51.172Z,1.05
2022-08-31T13:24:32.276Z,0.60
2022-08-31T13:27:40.163Z,1.33
2022-08-31T13:30:28.487Z,0.70
2022-08-31T13:33:35.224Z,1.30
2022-08-31T13:36:53.043Z,0.88
2022-08-31T13:39:40.324Z,1.05
2022-08-31T13:42:54.422Z,1.33
2022-08-31T13:46:00.295Z,0.77
2022-08-31T13:48:57.621Z,1.20
2022-08-31T13:52:10.285Z,1.55
2022-08-31T13:55:19.248Z,0.63
2022-08-31T13:58:54.407Z,0.73
2022-08-31T14:01:40.769Z,0.70
2022-08-31T14:04:57.233Z,1.70
2022-08-31T14:08:11.113Z,0.90
2022-08-31T14:10:50.669Z,1.00
2022-08-31T14:13:31.299Z,3.47
2022-08-31T14:16:26.600Z,1.00
2022-08-31T14:22:51.063Z,1.70
2022-08-31T14:25:30.664Z,1.05
2022-08-31T14:28:15.508Z,1.13
2022-08-31T14:31:09.613Z,0.63
2022-08-31T14:33:51.332Z,0.60
2022-08-31T14:36:45.237Z,1.25
2022-08-31T14:40:16.978Z,1.40
2022-08-31T14:42:59.809Z,1.45
2022-08-31T14:45:45.980Z,1.05
2022-08-31T14:48:37.239Z,1.00
2022-08-31T14:51:28.344Z,1.02
2022-08-31T14:54:07.368Z,0.80
2022-08-31T14:56:57.433Z,1.00
2022-08-31T14:59:31.783Z,0.93
2022-08-31T15:02:15.862Z,0.80
2022-08-31T15:04:50.748Z,1.40
2022-08-31T15:07:46.776Z,1.38
2022-08-31T15:10:34.116Z,0.50
2022-08-31T15:13:30.196Z,0.80
2022-08-31T15:17:10.547Z,1.30
2022-08-31T15:19:56.831Z,1.10
2022-08-31T15:26:18.494Z,1.27
2022-08-31T15:29:34.085Z,0.70
2022-08-31T15:35:03.462Z,0.80
2022-08-31T15:38:25.972Z,0.80
2022-08-31T15:41:04.425Z,0.90
2022-08-31T15:43:51.468Z,1.00
2022-08-31T15:46:51.772Z,0.60
2022-08-31T15:49:29.403Z,0.88
2022-08-31T15:52:26.527Z,1.05
2022-08-31T15:58:07.406Z,1.30
2022-08-31T16:00:57.103Z,1.58
2022-08-31T16:07:08.226Z,1.30
2022-08-31T16:10:15.611Z,1.30
2022-08-31T16:13:13.099Z,11.32
2022-08-31T16:15:56.848Z,12.00
2022-08-31T16:18:48.626Z,2.75
2022-08-31T16:21:41.115Z,1.30
2022-08-31T16:24:24.834Z,1.40
2022-08-31T16:27:23.178Z,1.55
2022-08-31T16:30:10.965Z,0.95
2022-08-31T16:32:52.116Z,1.63
2022-08-31T16:35:33.495Z,0.98
2022-08-31T16:42:04.944Z,5.25
2022-08-31T16:44:52.819Z,2.25
2022-08-31T16:47:44.702Z,3.05
2022-08-31T16:50:39.909Z,2.20
2022-08-31T16:53:18.808Z,1.95
2022-08-31T16:56:14.715Z,1.58
2022-08-31T16:58:53.965Z,2.67
2022-08-31T17:01:45.743Z,3.58
2022-08-31T17:04:50.516Z,4.70
2022-08-31T17:10:12.121Z,2.08
2022-08-31T17:12:58.036Z,2.47
2022-08-31T17:15:33.159Z,2.80
2022-08-31T17:18:36.737Z,5.22
2022-08-31T17:21:09.148Z,5.13
2022-08-31T17:23:55.670Z,22.00
2022-08-31T17:26:43.304Z,18.58
2022-08-31T17:29:31.640Z,26.40
2022-08-31T17:32:25.615Z,7.53
2022-08-31T17:35:20.336Z,4.72
2022-08-31T17:38:02.473Z,5.38
2022-08-31T17:40:47.178Z,5.72
2022-08-31T17:43:26.169Z,2.08
2022-08-31T17:49:15.935Z,2.22
2022-08-31T17:51:55.570Z,2.13
2022-08-31T17:54:52.723Z,8.75
2022-08-31T18:00:27.392Z,9.48
2022-08-31T18:03:14.654Z,6.13
2022-08-31T18:06:02.065Z,6.32
2022-08-31T18:08:52.790Z,9.95
2022-08-31T18:11:27.540Z,8.93
2022-08-31T18:14:19.354Z,3.40
2022-08-31T18:17:06.430Z,4.50
2022-08-31T18:20:00.857Z,6.50
2022-08-31T18:22:44.835Z,12.80
2022-08-31T18:25:42.026Z,9.50
2022-08-31T18:28:26.840Z,12.50
2022-08-31T18:31:12.004Z,20.00
2022-08-31T18:33:56.133Z,10.45
2022-08-31T18:36:55.139Z,22.38
2022-08-31T18:40:08.307Z,29.65
2022-08-31T18:43:02.524Z,29.15
2022-08-31T18:45:50.015Z,13.00
2022-08-31T18:48:39.054Z,9.82
2022-08-31T18:51:29.017Z,8.02
2022-08-31T18:54:10.655Z,4.07
2022-08-31T18:56:52.958Z,4.28
2022-08-31T18:59:31.570Z,3.97
2022-08-31T19:02:29.215Z,7.97
2022-08-31T19:05:24.815Z,7.03
2022-08-31T19:08:15.655Z,9.18
2022-08-31T19:11:19.577Z,10.20
2022-08-31T19:14:45.115Z,13.55
2022-08-31T19:17:40.123Z,10.10
2022-08-31T19:23:41.050Z,15.20
2022-08-31T19:26:24.599Z,14.18
2022-08-31T19:29:15.443Z,10.75
2022-08-31T19:32:07.164Z,10.05
2022-08-31T19:37:51.514Z,4.40
2022-08-31T19:40:43.457Z,14.70
2022-08-31T19:43:48.433Z,17.45
2022-08-31T19:46:28.342Z,11.88
2022-08-31T19:49:21.589Z,8.00
2022-08-31T19:54:55.750Z,6.30
2022-08-31T19:57:40.562Z,9.10
2022-08-31T20:00:22.641Z,6.50
2022-08-31T20:03:09.578Z,3.63
2022-08-31T20:06:13.758Z,3.70
2022-08-31T20:11:59.856Z,4.60
2022-08-31T20:18:00.789Z,3.72
2022-08-31T20:21:22.379Z,3.17
2022-08-31T20:26:57.034Z,2.45
2022-08-31T20:29:26.805Z,2.50
2022-08-31T20:32:04.835Z,7.75
2022-08-31T20:34:34.312Z,5.20
2022-08-31T20:37:28.827Z,4.70
2022-08-31T20:40:11.336Z,3.72
2022-08-31T20:43:00.670Z,3.17
2022-08-31T20:45:49.312Z,3.90
2022-08-31T20:48:47.378Z,2.83
2022-08-31T20:51:22.868Z,4.60
2022-08-31T20:54:15.259Z,2.85
2022-08-31T20:57:11.184Z,1.90
2022-08-31T21:00:01.628Z,2.33
2022-08-31T21:02:51.794Z,2.25
2022-08-31T21:05:39.534Z,5.75
2022-08-31T21:08:19.713Z,10.05
2022-08-31T21:11:11.352Z,4.10
2022-08-31T21:13:51.939Z,8.10
2022-08-31T21:16:38.000Z,6.70
2022-08-31T21:19:23.461Z,5.35
2022-08-31T21:22:10.284Z,3.60
2022-08-31T21:25:07.405Z,2.33
2022-08-31T21:27:51.557Z,2.65
2022-08-31T21:33:11.785Z,5.78
2022-08-31T21:36:02.103Z,4.00
2022-08-31T21:38:57.232Z,2.50
2022-08-31T21:41:29.523Z,2.08
2022-08-31T21:44:02.896Z,2.30
2022-08-31T21:46:37.427Z,2.78
2022-08-31T21:49:21.906Z,2.78
2022-08-31T21:52:04.229Z,2.78
2022-08-31T21:54:54.489Z,3.28
2022-08-31T21:57:35.898Z,2.10
2022-08-31T22:00:22.057Z,2.85
2022-08-31T22:02:58.611Z,2.60
2022-08-31T22:05:46.835Z,2.22
2022-08-31T22:08:21.428Z,2.67
2022-08-31T22:10:55.737Z,3.15
2022-08-31T22:13:34.663Z,3.72
2022-08-31T22:16:19.792Z,4.82
2022-08-31T22:19:21.959Z,2.38
2022-08-31T22:22:01.067Z,2.90
2022-08-31T22:24:43.764Z,3.28
2022-08-31T22:27:19.012Z,2.78
2022-08-31T22:32:27.998Z,5.28
2022-08-31T22:35:10.991Z,4.53
2022-08-31T22:37:51.507Z,4.10
2022-08-31T22:40:32.517Z,5.20
2022-08-31T22:43:05.776Z,4.68
2022-08-31T22:45:51.047Z,6.63
2022-08-31T22:48:40.128Z,9.68
2022-08-31T22:51:13.453Z,8.57
2022-08-31T22:56:46.413Z,9.05
2022-08-31T22:59:37.060Z,7.32
2022-08-31T23:02:13.699Z,4.00
2022-08-31T23:04:48.882Z,5.05
2022-08-31T23:07:27.945Z,4.22
2022-08-31T23:10:01.357Z,3.03
2022-08-31T23:12:57.798Z,3.47
2022-08-31T23:15:29.573Z,5.32
2022-08-31T23:17:59.531Z,3.72
2022-08-31T23:20:35.732Z,3.90
2022-08-31T23:23:54.565Z,6.38
2022-08-31T23:26:28.517Z,6.28
2022-08-31T23:29:06.860Z,6.32
2022-08-31T23:34:28.632Z,7.38
2022-08-31T23:37:02.819Z,8.25
2022-08-31T23:39:34.756Z,5.97
2022-08-31T23:42:07.994Z,6.82
2022-08-31T23:44:43.961Z,5.90
2022-08-31T23:47:21.895Z,4.32
2022-08-31T23:49:54.662Z,4.70
2022-08-31T23:52:43.343Z,5.10
2022-08-31T23:55:16.826Z,7.38
2022-08-31T23:57:50.838Z,12.60
